sensor_id;sensor_type;location;lat;lon;timestamp;pressure;altitude;pressure_sealevel;temperature;humidity
4705;BME280;2366;51.332;6.610;2022-08-21T00:02:25;101541.94;;;20.77;64.14
4705;BME280;2366;51.332;6.610;2022-08-21T00:04:51;101533.16;;;20.65;64.46
4705;BME280;2366;51.332;6.610;2022-08-21T00:07:18;101536.41;;;20.59;64.64
4705;BME280;2366;51.332;6.610;2022-08-21T00:09:44;101529.69;;;20.53;64.85
4705;BME280;2366;51.332;6.610;2022-08-21T00:12:09;101535.66;;;20.47;64.81
4705;BME280;2366;51.332;6.610;2022-08-21T00:14:35;101532.66;;;20.41;64.95
4705;BME280;2366;51.332;6.610;2022-08-21T00:17:02;101533.47;;;20.31;65.38
4705;BME280;2366;51.332;6.610;2022-08-21T00:19:28;101524.53;;;20.21;65.85
4705;BME280;2366;51.332;6.610;2022-08-21T00:21:54;101537.69;;;20.15;65.91
4705;BME280;2366;51.332;6.610;2022-08-21T00:24:21;101525.88;;;20.06;66.13
4705;BME280;2366;51.332;6.610;2022-08-21T00:26:47;101516.09;;;19.95;66.76
4705;BME280;2366;51.332;6.610;2022-08-21T00:29:13;101514.34;;;19.84;66.94
4705;BME280;2366;51.332;6.610;2022-08-21T00:31:39;101513.03;;;19.79;67.36
4705;BME280;2366;51.332;6.610;2022-08-21T00:34:05;101516.16;;;19.74;67.31
4705;BME280;2366;51.332;6.610;2022-08-21T00:36:32;101514.81;;;19.68;67.83
4705;BME280;2366;51.332;6.610;2022-08-21T00:38:58;101517.44;;;19.59;67.89
4705;BME280;2366;51.332;6.610;2022-08-21T00:41:24;101513.44;;;19.53;68.41
4705;BME280;2366;51.332;6.610;2022-08-21T00:43:49;101512.00;;;19.49;68.64
4705;BME280;2366;51.332;6.610;2022-08-21T00:46:15;101507.03;;;19.44;68.73
4705;BME280;2366;51.332;6.610;2022-08-21T00:48:41;101508.28;;;19.40;68.92
4705;BME280;2366;51.332;6.610;2022-08-21T00:51:10;101510.00;;;19.41;69.03
4705;BME280;2366;51.332;6.610;2022-08-21T00:53:40;101510.00;;;19.41;69.15
4705;BME280;2366;51.332;6.610;2022-08-21T00:56:09;101505.75;;;19.39;69.16
4705;BME280;2366;51.332;6.610;2022-08-21T00:58:36;101503.44;;;19.34;69.23
4705;BME280;2366;51.332;6.610;2022-08-21T01:01:04;101506.28;;;19.33;69.19
4705;BME280;2366;51.332;6.610;2022-08-21T01:03:30;101511.16;;;19.27;69.11
4705;BME280;2366;51.332;6.610;2022-08-21T01:05:55;101501.94;;;19.20;69.41
4705;BME280;2366;51.332;6.610;2022-08-21T01:08:21;101508.44;;;19.18;69.77
4705;BME280;2366;51.332;6.610;2022-08-21T01:10:48;101508.81;;;19.13;69.88
4705;BME280;2366;51.332;6.610;2022-08-21T01:13:15;101511.75;;;19.10;70.17
4705;BME280;2366;51.332;6.610;2022-08-21T01:15:45;101509.22;;;19.08;70.35
4705;BME280;2366;51.332;6.610;2022-08-21T01:18:12;101506.91;;;19.04;70.27
4705;BME280;2366;51.332;6.610;2022-08-21T01:20:40;101519.63;;;19.02;70.90
4705;BME280;2366;51.332;6.610;2022-08-21T01:23:07;101514.50;;;18.99;70.71
4705;BME280;2366;51.332;6.610;2022-08-21T01:25:33;101512.09;;;18.96;70.94
4705;BME280;2366;51.332;6.610;2022-08-21T01:28:02;101523.81;;;18.95;70.98
4705;BME280;2366;51.332;6.610;2022-08-21T01:30:32;101511.59;;;18.91;71.14
4705;BME280;2366;51.332;6.610;2022-08-21T01:32:59;101516.84;;;18.92;71.18
4705;BME280;2366;51.332;6.610;2022-08-21T01:35:25;101515.41;;;18.88;71.39
4705;BME280;2366;51.332;6.610;2022-08-21T01:37:50;101519.34;;;18.84;71.40
4705;BME280;2366;51.332;6.610;2022-08-21T01:40:17;101527.66;;;18.81;71.51
4705;BME280;2366;51.332;6.610;2022-08-21T01:42:44;101519.84;;;18.78;71.40
4705;BME280;2366;51.332;6.610;2022-08-21T01:45:10;101522.75;;;18.75;71.54
4705;BME280;2366;51.332;6.610;2022-08-21T01:47:36;101524.72;;;18.73;71.87
4705;BME280;2366;51.332;6.610;2022-08-21T01:50:05;101520.19;;;18.73;72.14
4705;BME280;2366;51.332;6.610;2022-08-21T01:52:30;101521.91;;;18.74;72.01
4705;BME280;2366;51.332;6.610;2022-08-21T01:54:56;101520.47;;;18.70;72.07
4705;BME280;2366;51.332;6.610;2022-08-21T01:57:22;101510.84;;;18.67;72.25
4705;BME280;2366;51.332;6.610;2022-08-21T01:59:48;101513.75;;;18.64;72.41
4705;BME280;2366;51.332;6.610;2022-08-21T02:02:13;101512.91;;;18.64;72.55
4705;BME280;2366;51.332;6.610;2022-08-21T02:04:38;101508.66;;;18.61;72.54
4705;BME280;2366;51.332;6.610;2022-08-21T02:07:04;101512.56;;;18.57;72.67
4705;BME280;2366;51.332;6.610;2022-08-21T02:09:29;101506.34;;;18.57;73.13
4705;BME280;2366;51.332;6.610;2022-08-21T02:11:55;101505.75;;;18.53;73.03
4705;BME280;2366;51.332;6.610;2022-08-21T02:14:21;101507.59;;;18.53;73.16
4705;BME280;2366;51.332;6.610;2022-08-21T02:16:47;101509.88;;;18.57;73.16
4705;BME280;2366;51.332;6.610;2022-08-21T02:19:14;101507.53;;;18.64;73.23
4705;BME280;2366;51.332;6.610;2022-08-21T02:21:40;101509.72;;;18.70;73.21
4705;BME280;2366;51.332;6.610;2022-08-21T02:24:07;101504.97;;;18.74;73.17
4705;BME280;2366;51.332;6.610;2022-08-21T02:26:33;101508.88;;;18.70;73.08
4705;BME280;2366;51.332;6.610;2022-08-21T02:28:58;101501.44;;;18.62;73.07
4705;BME280;2366;51.332;6.610;2022-08-21T02:31:24;101503.50;;;18.58;73.06
4705;BME280;2366;51.332;6.610;2022-08-21T02:33:50;101506.19;;;18.58;73.14
4705;BME280;2366;51.332;6.610;2022-08-21T02:36:16;101512.69;;;18.56;73.28
4705;BME280;2366;51.332;6.610;2022-08-21T02:38:42;101504.91;;;18.53;73.29
4705;BME280;2366;51.332;6.610;2022-08-21T02:41:13;101504.63;;;18.56;73.72
4705;BME280;2366;51.332;6.610;2022-08-21T02:43:38;101514.53;;;18.55;73.49
4705;BME280;2366;51.332;6.610;2022-08-21T02:46:05;101501.81;;;18.57;73.50
4705;BME280;2366;51.332;6.610;2022-08-21T02:48:32;101507.09;;;18.59;73.44
4705;BME280;2366;51.332;6.610;2022-08-21T02:51:04;101499.03;;;18.59;73.43
4705;BME280;2366;51.332;6.610;2022-08-21T02:53:30;101500.25;;;18.55;73.37
4705;BME280;2366;51.332;6.610;2022-08-21T02:55:58;101498.19;;;18.47;73.53
4705;BME280;2366;51.332;6.610;2022-08-21T02:58:28;101511.03;;;18.43;73.65
4705;BME280;2366;51.332;6.610;2022-08-21T03:00:54;101506.88;;;18.39;73.83
4705;BME280;2366;51.332;6.610;2022-08-21T03:03:19;101506.41;;;18.34;73.90
4705;BME280;2366;51.332;6.610;2022-08-21T03:05:46;101499.56;;;18.30;74.03
4705;BME280;2366;51.332;6.610;2022-08-21T03:08:14;101497.41;;;18.24;74.07
4705;BME280;2366;51.332;6.610;2022-08-21T03:10:43;101488.63;;;18.22;74.10
4705;BME280;2366;51.332;6.610;2022-08-21T03:13:09;101493.38;;;18.18;74.16
4705;BME280;2366;51.332;6.610;2022-08-21T03:15:35;101486.19;;;18.19;74.65
4705;BME280;2366;51.332;6.610;2022-08-21T03:18:02;101490.09;;;18.15;74.48
4705;BME280;2366;51.332;6.610;2022-08-21T03:20:30;101491.31;;;18.11;74.41
4705;BME280;2366;51.332;6.610;2022-08-21T03:22:57;101493.03;;;18.12;74.90
4705;BME280;2366;51.332;6.610;2022-08-21T03:25:24;101489.63;;;18.10;74.99
4705;BME280;2366;51.332;6.610;2022-08-21T03:27:50;101489.88;;;18.06;74.88
4705;BME280;2366;51.332;6.610;2022-08-21T03:30:16;101490.09;;;18.03;74.95
4705;BME280;2366;51.332;6.610;2022-08-21T03:32:42;101484.13;;;18.00;74.87
4705;BME280;2366;51.332;6.610;2022-08-21T03:35:09;101490.59;;;17.97;74.81
4705;BME280;2366;51.332;6.610;2022-08-21T03:37:35;101501.59;;;17.94;74.93
4705;BME280;2366;51.332;6.610;2022-08-21T03:40:01;101501.81;;;17.91;75.15
4705;BME280;2366;51.332;6.610;2022-08-21T03:42:26;101499.88;;;17.93;75.23
4705;BME280;2366;51.332;6.610;2022-08-21T03:44:52;101502.81;;;17.90;75.32
4705;BME280;2366;51.332;6.610;2022-08-21T03:47:17;101504.75;;;17.88;75.33
4705;BME280;2366;51.332;6.610;2022-08-21T03:49:43;101505.75;;;17.87;75.37
4705;BME280;2366;51.332;6.610;2022-08-21T03:52:08;101501.34;;;17.86;75.40
4705;BME280;2366;51.332;6.610;2022-08-21T03:54:34;101505.97;;;17.84;75.39
4705;BME280;2366;51.332;6.610;2022-08-21T03:56:59;101505.25;;;17.82;75.51
4705;BME280;2366;51.332;6.610;2022-08-21T03:59:25;101499.88;;;17.82;75.55
4705;BME280;2366;51.332;6.610;2022-08-21T04:01:57;101503.28;;;17.84;75.77
4705;BME280;2366;51.332;6.610;2022-08-21T04:04:23;101510.59;;;17.82;75.77
4705;BME280;2366;51.332;6.610;2022-08-21T04:06:48;101513.41;;;17.80;75.67
4705;BME280;2366;51.332;6.610;2022-08-21T04:09:15;101511.94;;;17.76;75.59
4705;BME280;2366;51.332;6.610;2022-08-21T04:11:41;101516.41;;;17.76;75.69
4705;BME280;2366;51.332;6.610;2022-08-21T04:14:06;101519.34;;;17.73;75.54
4705;BME280;2366;51.332;6.610;2022-08-21T04:16:31;101515.19;;;17.69;75.45
4705;BME280;2366;51.332;6.610;2022-08-21T04:18:57;101521.78;;;17.64;75.48
4705;BME280;2366;51.332;6.610;2022-08-21T04:21:23;101512.03;;;17.63;75.56
4705;BME280;2366;51.332;6.610;2022-08-21T04:23:48;101515.47;;;17.65;75.79
4705;BME280;2366;51.332;6.610;2022-08-21T04:26:13;101511.06;;;17.64;75.66
4705;BME280;2366;51.332;6.610;2022-08-21T04:28:39;101517.25;;;17.65;75.40
4705;BME280;2366;51.332;6.610;2022-08-21T04:31:04;101521.88;;;17.63;75.65
4705;BME280;2366;51.332;6.610;2022-08-21T04:33:30;101523.50;;;17.65;75.84
4705;BME280;2366;51.332;6.610;2022-08-21T04:35:55;101523.72;;;17.62;75.60
4705;BME280;2366;51.332;6.610;2022-08-21T04:38:21;101521.03;;;17.62;75.59
4705;BME280;2366;51.332;6.610;2022-08-21T04:40:47;101521.88;;;17.63;75.51
4705;BME280;2366;51.332;6.610;2022-08-21T04:43:13;101512.78;;;17.65;75.52
4705;BME280;2366;51.332;6.610;2022-08-21T04:45:43;101518.72;;;17.69;75.45
4705;BME280;2366;51.332;6.610;2022-08-21T04:48:11;101516.56;;;17.74;75.07
4705;BME280;2366;51.332;6.610;2022-08-21T04:50:47;101521.66;;;17.77;75.07
4705;BME280;2366;51.332;6.610;2022-08-21T04:55:50;101525.25;;;17.89;75.05
4705;BME280;2366;51.332;6.610;2022-08-21T04:58:19;101527.19;;;17.98;74.55
4705;BME280;2366;51.332;6.610;2022-08-21T05:00:46;101525.97;;;18.02;74.06
4705;BME280;2366;51.332;6.610;2022-08-21T05:03:12;101524.75;;;18.06;73.95
4705;BME280;2366;51.332;6.610;2022-08-21T05:05:40;101525.22;;;18.12;73.98
4705;BME280;2366;51.332;6.610;2022-08-21T05:08:07;101525.59;;;18.18;73.63
4705;BME280;2366;51.332;6.610;2022-08-21T05:10:36;101528.50;;;18.26;73.23
4705;BME280;2366;51.332;6.610;2022-08-21T05:13:02;101528.84;;;18.33;72.95
4705;BME280;2366;51.332;6.610;2022-08-21T05:15:28;101532.63;;;18.42;72.52
4705;BME280;2366;51.332;6.610;2022-08-21T05:17:55;101532.72;;;18.52;72.41
4705;BME280;2366;51.332;6.610;2022-08-21T05:20:21;101539.16;;;18.60;71.75
4705;BME280;2366;51.332;6.610;2022-08-21T05:22:46;101544.50;;;18.72;71.23
4705;BME280;2366;51.332;6.610;2022-08-21T05:25:11;101541.44;;;18.87;70.94
4705;BME280;2366;51.332;6.610;2022-08-21T05:27:38;101547.09;;;19.05;70.11
4705;BME280;2366;51.332;6.610;2022-08-21T05:30:05;101544.75;;;19.33;69.24
4705;BME280;2366;51.332;6.610;2022-08-21T05:32:32;101534.84;;;19.76;67.22
4705;BME280;2366;51.332;6.610;2022-08-21T05:34:58;101540.66;;;20.62;66.23
4705;BME280;2366;51.332;6.610;2022-08-21T05:37:23;101549.19;;;22.20;61.39
4705;BME280;2366;51.332;6.610;2022-08-21T05:39:48;101540.59;;;23.60;56.44
4705;BME280;2366;51.332;6.610;2022-08-21T05:42:14;101544.13;;;24.55;51.88
4705;BME280;2366;51.332;6.610;2022-08-21T05:44:39;101537.91;;;25.36;48.90
4705;BME280;2366;51.332;6.610;2022-08-21T05:47:07;101541.81;;;26.06;46.38
4705;BME280;2366;51.332;6.610;2022-08-21T05:49:32;101542.44;;;26.48;44.81
4705;BME280;2366;51.332;6.610;2022-08-21T05:51:58;101529.88;;;27.01;43.49
4705;BME280;2366;51.332;6.610;2022-08-21T05:54:24;101537.69;;;27.19;42.86
4705;BME280;2366;51.332;6.610;2022-08-21T05:56:49;101540.53;;;27.49;40.92
4705;BME280;2366;51.332;6.610;2022-08-21T05:59:14;101537.94;;;27.85;41.33
4705;BME280;2366;51.332;6.610;2022-08-21T06:01:40;101534.38;;;28.36;39.83
4705;BME280;2366;51.332;6.610;2022-08-21T06:04:06;101536.53;;;28.98;38.73
4705;BME280;2366;51.332;6.610;2022-08-21T06:06:33;101546.91;;;29.59;37.80
4705;BME280;2366;51.332;6.610;2022-08-21T06:08:58;101543.50;;;29.79;36.91
4705;BME280;2366;51.332;6.610;2022-08-21T06:11:24;101544.50;;;30.67;36.39
4705;BME280;2366;51.332;6.610;2022-08-21T06:13:49;101552.09;;;30.79;34.56
4705;BME280;2366;51.332;6.610;2022-08-21T06:16:16;101540.78;;;31.48;33.94
4705;BME280;2366;51.332;6.610;2022-08-21T06:18:42;101545.81;;;31.65;32.48
4705;BME280;2366;51.332;6.610;2022-08-21T06:21:08;101541.50;;;31.96;33.03
4705;BME280;2366;51.332;6.610;2022-08-21T06:23:34;101545.84;;;31.51;31.99
4705;BME280;2366;51.332;6.610;2022-08-21T06:26:01;101539.63;;;32.41;32.20
4705;BME280;2366;51.332;6.610;2022-08-21T06:28:27;101540.06;;;32.77;31.26
4705;BME280;2366;51.332;6.610;2022-08-21T06:30:52;101544.25;;;32.54;32.21
4705;BME280;2366;51.332;6.610;2022-08-21T06:33:17;101537.94;;;32.47;31.36
4705;BME280;2366;51.332;6.610;2022-08-21T06:35:43;101544.16;;;32.99;31.24
4705;BME280;2366;51.332;6.610;2022-08-21T06:38:08;101537.91;;;33.17;30.67
4705;BME280;2366;51.332;6.610;2022-08-21T06:40:34;101538.03;;;32.97;31.23
4705;BME280;2366;51.332;6.610;2022-08-21T06:43:09;101537.63;;;32.68;30.73
4705;BME280;2366;51.332;6.610;2022-08-21T06:45:36;101551.53;;;32.99;30.63
4705;BME280;2366;51.332;6.610;2022-08-21T06:48:01;101542.78;;;32.45;30.09
4705;BME280;2366;51.332;6.610;2022-08-21T06:50:28;101536.44;;;32.83;30.85
4705;BME280;2366;51.332;6.610;2022-08-21T06:53:20;101548.66;;;33.19;29.52
4705;BME280;2366;51.332;6.610;2022-08-21T06:55:46;101543.53;;;32.65;30.54
4705;BME280;2366;51.332;6.610;2022-08-21T06:58:12;101544.22;;;33.43;28.58
4705;BME280;2366;51.332;6.610;2022-08-21T07:00:40;101540.56;;;33.49;30.20
4705;BME280;2366;51.332;6.610;2022-08-21T07:03:06;101542.66;;;33.72;29.14
4705;BME280;2366;51.332;6.610;2022-08-21T07:05:31;101534.41;;;33.90;28.77
4705;BME280;2366;51.332;6.610;2022-08-21T07:07:57;101536.72;;;35.14;27.29
4705;BME280;2366;51.332;6.610;2022-08-21T07:10:25;101540.06;;;35.28;27.27
4705;BME280;2366;51.332;6.610;2022-08-21T07:12:51;101536.91;;;35.95;25.94
4705;BME280;2366;51.332;6.610;2022-08-21T07:15:17;101538.59;;;35.96;26.23
4705;BME280;2366;51.332;6.610;2022-08-21T07:17:43;101536.53;;;36.44;25.21
4705;BME280;2366;51.332;6.610;2022-08-21T07:20:08;101535.78;;;35.21;26.03
4705;BME280;2366;51.332;6.610;2022-08-21T07:22:35;101536.97;;;34.41;26.92
4705;BME280;2366;51.332;6.610;2022-08-21T07:25:02;101533.75;;;34.44;27.35
4705;BME280;2366;51.332;6.610;2022-08-21T07:27:27;101538.47;;;34.97;26.36
4705;BME280;2366;51.332;6.610;2022-08-21T07:29:53;101532.31;;;34.71;26.71
4705;BME280;2366;51.332;6.610;2022-08-21T07:32:18;101535.13;;;33.86;27.88
4705;BME280;2366;51.332;6.610;2022-08-21T07:34:43;101536.13;;;34.40;27.76
4705;BME280;2366;51.332;6.610;2022-08-21T07:37:09;101540.03;;;34.32;27.58
4705;BME280;2366;51.332;6.610;2022-08-21T07:39:35;101541.41;;;35.37;27.02
4705;BME280;2366;51.332;6.610;2022-08-21T07:42:00;101535.50;;;35.69;25.75
4705;BME280;2366;51.332;6.610;2022-08-21T07:44:26;101532.31;;;36.13;25.34
4705;BME280;2366;51.332;6.610;2022-08-21T07:46:51;101538.88;;;36.24;25.08
4705;BME280;2366;51.332;6.610;2022-08-21T07:49:16;101540.22;;;36.21;24.61
4705;BME280;2366;51.332;6.610;2022-08-21T07:51:42;101538.13;;;35.52;25.54
4705;BME280;2366;51.332;6.610;2022-08-21T07:54:07;101529.41;;;35.44;25.96
4705;BME280;2366;51.332;6.610;2022-08-21T07:56:33;101527.09;;;35.88;25.48
4705;BME280;2366;51.332;6.610;2022-08-21T07:58:59;101521.28;;;36.13;24.88
4705;BME280;2366;51.332;6.610;2022-08-21T08:01:24;101521.97;;;37.11;24.07
4705;BME280;2366;51.332;6.610;2022-08-21T08:03:50;101516.88;;;37.20;23.89
4705;BME280;2366;51.332;6.610;2022-08-21T08:06:15;101524.16;;;37.26;23.74
4705;BME280;2366;51.332;6.610;2022-08-21T08:08:43;101521.72;;;37.69;23.09
4705;BME280;2366;51.332;6.610;2022-08-21T08:11:10;101503.97;;;36.92;23.71
4705;BME280;2366;51.332;6.610;2022-08-21T08:13:44;101509.69;;;37.58;23.43
4705;BME280;2366;51.332;6.610;2022-08-21T08:16:10;101518.94;;;37.91;23.20
4705;BME280;2366;51.332;6.610;2022-08-21T08:18:35;101505.69;;;37.32;23.63
4705;BME280;2366;51.332;6.610;2022-08-21T08:21:01;101498.69;;;36.73;23.92
4705;BME280;2366;51.332;6.610;2022-08-21T08:23:27;101506.03;;;37.35;22.89
4705;BME280;2366;51.332;6.610;2022-08-21T08:25:53;101514.97;;;37.81;23.06
4705;BME280;2366;51.332;6.610;2022-08-21T08:28:18;101510.16;;;37.94;22.93
4705;BME280;2366;51.332;6.610;2022-08-21T08:30:45;101516.03;;;37.58;23.33
4705;BME280;2366;51.332;6.610;2022-08-21T08:33:11;101512.34;;;37.70;23.46
4705;BME280;2366;51.332;6.610;2022-08-21T08:35:36;101504.38;;;37.95;22.33
4705;BME280;2366;51.332;6.610;2022-08-21T08:38:01;101503.56;;;37.78;22.98
4705;BME280;2366;51.332;6.610;2022-08-21T08:40:47;101503.66;;;36.59;24.09
4705;BME280;2366;51.332;6.610;2022-08-21T08:43:14;101503.88;;;35.72;25.20
4705;BME280;2366;51.332;6.610;2022-08-21T08:45:43;101498.34;;;36.24;24.72
4705;BME280;2366;51.332;6.610;2022-08-21T08:48:14;101500.44;;;36.05;25.33
4705;BME280;2366;51.332;6.610;2022-08-21T08:51:07;101489.84;;;35.50;26.07
4705;BME280;2366;51.332;6.610;2022-08-21T08:53:47;101493.22;;;33.28;27.97
4705;BME280;2366;51.332;6.610;2022-08-21T08:56:14;101488.88;;;33.21;28.23
4705;BME280;2366;51.332;6.610;2022-08-21T08:58:41;101486.91;;;34.20;27.81
4705;BME280;2366;51.332;6.610;2022-08-21T09:01:16;101488.56;;;35.05;26.45
4705;BME280;2366;51.332;6.610;2022-08-21T09:03:43;101486.75;;;35.11;26.23
4705;BME280;2366;51.332;6.610;2022-08-21T09:16:58;101469.91;;;37.59;22.57
4705;BME280;2366;51.332;6.610;2022-08-21T09:25:30;101490.31;;;38.51;22.50
4705;BME280;2366;51.332;6.610;2022-08-21T09:27:57;101473.53;;;38.63;21.79
4705;BME280;2366;51.332;6.610;2022-08-21T09:30:27;101478.88;;;37.71;22.84
4705;BME280;2366;51.332;6.610;2022-08-21T09:32:54;101474.47;;;37.70;22.99
4705;BME280;2366;51.332;6.610;2022-08-21T09:35:21;101477.44;;;38.40;22.74
4705;BME280;2366;51.332;6.610;2022-08-21T09:38:05;101472.03;;;38.23;23.17
4705;BME280;2366;51.332;6.610;2022-08-21T09:40:35;101473.06;;;38.44;22.55
4705;BME280;2366;51.332;6.610;2022-08-21T09:45:28;101459.50;;;36.43;24.91
4705;BME280;2366;51.332;6.610;2022-08-21T09:47:54;101465.63;;;36.95;24.25
4705;BME280;2366;51.332;6.610;2022-08-21T09:50:24;101467.59;;;34.39;27.05
4705;BME280;2366;51.332;6.610;2022-08-21T09:52:56;101467.66;;;33.46;28.18
4705;BME280;2366;51.332;6.610;2022-08-21T09:55:31;101462.94;;;33.72;28.15
4705;BME280;2366;51.332;6.610;2022-08-21T09:58:17;101456.56;;;34.92;26.74
4705;BME280;2366;51.332;6.610;2022-08-21T10:00:43;101455.72;;;36.03;25.02
4705;BME280;2366;51.332;6.610;2022-08-21T10:03:19;101460.44;;;36.48;24.76
4705;BME280;2366;51.332;6.610;2022-08-21T10:05:59;101450.97;;;35.23;25.54
4705;BME280;2366;51.332;6.610;2022-08-21T10:08:27;101450.78;;;33.24;28.36
4705;BME280;2366;51.332;6.610;2022-08-21T10:11:09;101442.81;;;31.96;29.88
4705;BME280;2366;51.332;6.610;2022-08-21T10:19:21;101438.44;;;30.69;32.22
4705;BME280;2366;51.332;6.610;2022-08-21T10:24:33;101440.22;;;30.22;33.20
4705;BME280;2366;51.332;6.610;2022-08-21T10:29:57;101442.19;;;30.28;33.58
4705;BME280;2366;51.332;6.610;2022-08-21T10:35:10;101446.66;;;29.95;33.64
4705;BME280;2366;51.332;6.610;2022-08-21T10:38:03;101441.53;;;29.72;34.01
4705;BME280;2366;51.332;6.610;2022-08-21T10:40:42;101434.91;;;29.94;33.92
4705;BME280;2366;51.332;6.610;2022-08-21T10:43:24;101434.81;;;30.36;33.01
4705;BME280;2366;51.332;6.610;2022-08-21T10:48:56;101422.78;;;30.17;32.71
4705;BME280;2366;51.332;6.610;2022-08-21T10:51:52;101430.53;;;30.13;32.82
4705;BME280;2366;51.332;6.610;2022-08-21T10:54:32;101430.44;;;30.55;32.53
4705;BME280;2366;51.332;6.610;2022-08-21T10:57:07;101428.53;;;30.62;31.53
4705;BME280;2366;51.332;6.610;2022-08-21T11:02:23;101428.31;;;30.70;32.00
4705;BME280;2366;51.332;6.610;2022-08-21T11:05:05;101437.59;;;30.82;32.43
4705;BME280;2366;51.332;6.610;2022-08-21T11:07:56;101435.06;;;31.01;31.40
4705;BME280;2366;51.332;6.610;2022-08-21T11:10:26;101426.66;;;30.76;32.05
4705;BME280;2366;51.332;6.610;2022-08-21T11:18:32;101434.22;;;30.74;32.35
4705;BME280;2366;51.332;6.610;2022-08-21T11:23:50;101434.63;;;30.57;33.30
4705;BME280;2366;51.332;6.610;2022-08-21T11:26:29;101430.03;;;30.64;32.91
4705;BME280;2366;51.332;6.610;2022-08-21T11:29:01;101428.72;;;30.47;33.45
4705;BME280;2366;51.332;6.610;2022-08-21T11:31:54;101424.03;;;30.27;34.22
4705;BME280;2366;51.332;6.610;2022-08-21T11:34:34;101417.38;;;30.30;33.33
4705;BME280;2366;51.332;6.610;2022-08-21T11:40:34;101430.19;;;30.29;33.62
4705;BME280;2366;51.332;6.610;2022-08-21T11:45:27;101428.19;;;29.97;32.64
4705;BME280;2366;51.332;6.610;2022-08-21T11:50:31;101427.34;;;29.96;34.48
4705;BME280;2366;51.332;6.610;2022-08-21T11:53:24;101422.50;;;29.92;34.20
4705;BME280;2366;51.332;6.610;2022-08-21T11:56:08;101425.19;;;29.85;34.66
4705;BME280;2366;51.332;6.610;2022-08-21T11:58:43;101416.91;;;29.65;34.46
4705;BME280;2366;51.332;6.610;2022-08-21T12:01:14;101418.88;;;29.43;35.23
4705;BME280;2366;51.332;6.610;2022-08-21T12:03:53;101422.34;;;29.58;34.91
4705;BME280;2366;51.332;6.610;2022-08-21T12:06:39;101411.69;;;29.70;34.56
4705;BME280;2366;51.332;6.610;2022-08-21T12:12:22;101407.84;;;30.19;33.61
4705;BME280;2366;51.332;6.610;2022-08-21T12:14:50;101406.84;;;30.34;33.72
4705;BME280;2366;51.332;6.610;2022-08-21T12:17:21;101404.25;;;30.12;33.69
4705;BME280;2366;51.332;6.610;2022-08-21T12:19:58;101401.72;;;29.97;33.83
4705;BME280;2366;51.332;6.610;2022-08-21T12:22:36;101409.00;;;29.83;33.28
4705;BME280;2366;51.332;6.610;2022-08-21T12:25:08;101407.50;;;29.74;33.57
4705;BME280;2366;51.332;6.610;2022-08-21T12:27:52;101401.50;;;29.16;33.97
4705;BME280;2366;51.332;6.610;2022-08-21T12:30:22;101413.56;;;29.28;34.88
4705;BME280;2366;51.332;6.610;2022-08-21T12:32:59;101412.47;;;29.64;34.44
4705;BME280;2366;51.332;6.610;2022-08-21T12:35:30;101400.88;;;29.55;33.92
4705;BME280;2366;51.332;6.610;2022-08-21T12:38:27;101398.50;;;29.39;33.99
4705;BME280;2366;51.332;6.610;2022-08-21T12:41:21;101410.00;;;29.34;33.44
4705;BME280;2366;51.332;6.610;2022-08-21T12:43:59;101406.03;;;29.30;33.94
4705;BME280;2366;51.332;6.610;2022-08-21T12:46:34;101398.50;;;29.39;34.12
4705;BME280;2366;51.332;6.610;2022-08-21T12:49:08;101404.16;;;29.37;34.17
4705;BME280;2366;51.332;6.610;2022-08-21T12:54:43;101408.38;;;29.81;32.16
4705;BME280;2366;51.332;6.610;2022-08-21T12:57:35;101405.69;;;29.95;32.73
4705;BME280;2366;51.332;6.610;2022-08-21T13:00:05;101405.13;;;30.26;32.64
4705;BME280;2366;51.332;6.610;2022-08-21T13:02:38;101402.56;;;30.11;32.22
4705;BME280;2366;51.332;6.610;2022-08-21T13:05:11;101396.09;;;30.25;31.73
4705;BME280;2366;51.332;6.610;2022-08-21T13:07:38;101394.88;;;30.35;32.50
4705;BME280;2366;51.332;6.610;2022-08-21T13:10:16;101397.81;;;30.46;31.92
4705;BME280;2366;51.332;6.610;2022-08-21T13:12:43;101399.63;;;30.06;32.44
4705;BME280;2366;51.332;6.610;2022-08-21T13:15:10;101397.94;;;30.05;32.28
4705;BME280;2366;51.332;6.610;2022-08-21T13:17:39;101395.03;;;30.26;31.08
4705;BME280;2366;51.332;6.610;2022-08-21T13:20:09;101395.19;;;29.98;31.46
4705;BME280;2366;51.332;6.610;2022-08-21T13:22:43;101394.50;;;29.83;32.48
4705;BME280;2366;51.332;6.610;2022-08-21T13:25:13;101394.25;;;29.71;33.16
4705;BME280;2366;51.332;6.610;2022-08-21T13:27:43;101395.88;;;29.65;33.78
4705;BME280;2366;51.332;6.610;2022-08-21T13:30:13;101383.13;;;29.73;34.32
4705;BME280;2366;51.332;6.610;2022-08-21T13:32:44;101386.94;;;29.78;33.25
4705;BME280;2366;51.332;6.610;2022-08-21T13:37:51;101385.47;;;29.82;32.55
4705;BME280;2366;51.332;6.610;2022-08-21T13:40:24;101374.56;;;29.89;33.04
4705;BME280;2366;51.332;6.610;2022-08-21T13:42:50;101373.47;;;29.70;32.76
4705;BME280;2366;51.332;6.610;2022-08-21T13:45:21;101376.06;;;30.05;32.42
4705;BME280;2366;51.332;6.610;2022-08-21T13:47:47;101374.41;;;30.17;32.34
4705;BME280;2366;51.332;6.610;2022-08-21T13:50:15;101371.50;;;30.25;33.10
4705;BME280;2366;51.332;6.610;2022-08-21T13:52:54;101376.72;;;30.27;32.69
4705;BME280;2366;51.332;6.610;2022-08-21T13:55:19;101373.63;;;30.37;32.50
4705;BME280;2366;51.332;6.610;2022-08-21T13:57:45;101372.81;;;30.43;31.91
4705;BME280;2366;51.332;6.610;2022-08-21T14:00:20;101372.38;;;30.33;32.08
4705;BME280;2366;51.332;6.610;2022-08-21T14:02:51;101369.84;;;30.38;32.03
4705;BME280;2366;51.332;6.610;2022-08-21T14:05:25;101371.66;;;30.04;31.53
4705;BME280;2366;51.332;6.610;2022-08-21T14:08:00;101370.16;;;29.95;32.05
4705;BME280;2366;51.332;6.610;2022-08-21T14:10:27;101364.31;;;30.24;31.83
4705;BME280;2366;51.332;6.610;2022-08-21T14:13:03;101369.81;;;30.58;31.58
4705;BME280;2366;51.332;6.610;2022-08-21T14:15:32;101371.28;;;31.07;30.38
4705;BME280;2366;51.332;6.610;2022-08-21T14:18:27;101375.69;;;31.15;30.32
4705;BME280;2366;51.332;6.610;2022-08-21T14:21:07;101364.63;;;31.55;30.25
4705;BME280;2366;51.332;6.610;2022-08-21T14:23:34;101358.69;;;31.64;30.24
4705;BME280;2366;51.332;6.610;2022-08-21T14:26:04;101350.78;;;31.36;29.58
4705;BME280;2366;51.332;6.610;2022-08-21T14:28:39;101367.06;;;31.04;30.09